Time;durP1;ratioP1;P1;durP2;ratioP2;P2;SDS_P1;SDS_P2;PMS_P1;PMS_P2;Temp;Humidity;BMP_temperature;BMP_pressure;BME280_temperature;BME280_humidity;BME280_pressure;Samples;Min_cycle;Max_cycle;Signal;HPM_P1;HPM_P2
2021/11/10 00:01:17;;;;;;;7.85;5.03;;;0.60;99.90;;;;;;5001454;28;20038;-68
2021/11/10 00:03:42;;;;;;;7.00;5.57;;;0.60;99.90;;;;;;4997304;28;20030;-68
2021/11/10 00:06:08;;;;;;;5.65;4.82;;;0.60;99.70;;;;;;5004115;28;20478;-68
2021/11/10 00:08:34;;;;;;;6.75;4.65;;;0.50;99.90;;;;;;5005145;28;20049;-68
2021/11/10 00:11:00;;;;;;;6.40;4.15;;;0.50;99.90;;;;;;5004066;28;20040;-68
2021/11/10 00:13:25;;;;;;;9.38;5.32;;;0.50;99.90;;;;;;5004079;28;20474;-68
2021/11/10 00:15:52;;;;;;;8.85;4.97;;;0.50;99.80;;;;;;5001738;28;20079;-68
2021/11/10 00:18:19;;;;;;;7.90;4.03;;;0.50;99.60;;;;;;5003954;28;20081;-68
2021/11/10 00:20:47;;;;;;;5.45;4.10;;;0.30;98.20;;;;;;5007561;28;20026;-66
2021/11/10 00:23:13;;;;;;;9.23;5.90;;;0.40;99.00;;;;;;5008475;28;20022;-67
2021/11/10 00:25:39;;;;;;;8.25;4.85;;;0.30;98.00;;;;;;5001693;28;20530;-67
2021/11/10 00:28:06;;;;;;;6.45;5.55;;;0.30;98.00;;;;;;5004952;28;20109;-67
2021/11/10 00:30:32;;;;;;;6.40;4.22;;;0.20;98.40;;;;;;5004950;28;20052;-67
2021/11/10 00:32:58;;;;;;;6.43;4.07;;;0.20;98.00;;;;;;4997255;28;20034;-68
2021/11/10 00:35:23;;;;;;;4.85;4.35;;;0.20;98.50;;;;;;5002929;28;20084;-67
2021/11/10 00:37:49;;;;;;;8.13;4.45;;;0.30;99.10;;;;;;5004651;28;20087;-67
2021/11/10 00:40:15;;;;;;;10.63;5.65;;;0.20;99.60;;;;;;5005764;28;20025;-67
2021/11/10 00:42:41;;;;;;;6.90;4.97;;;0.20;99.90;;;;;;5002445;28;20028;-67
2021/11/10 00:45:08;;;;;;;5.13;4.07;;;0.20;99.90;;;;;;5001758;28;20164;-67
2021/11/10 00:47:33;;;;;;;5.38;4.18;;;0.30;99.90;;;;;;5005952;28;20041;-67
2021/11/10 00:49:59;;;;;;;8.45;5.35;;;0.30;99.90;;;;;;5000461;28;20034;-67
2021/11/10 00:52:25;;;;;;;6.30;4.75;;;0.30;99.90;;;;;;5002867;28;20057;-67
2021/11/10 00:54:52;;;;;;;7.03;4.95;;;0.40;99.90;;;;;;4996065;28;20053;-67
2021/11/10 00:57:18;;;;;;;4.70;4.18;;;0.40;99.90;;;;;;5005906;28;20033;-67
2021/11/10 00:59:44;;;;;;;8.85;4.85;;;0.40;99.10;;;;;;5004727;28;20048;-67
2021/11/10 01:02:10;;;;;;;5.65;4.65;;;0.30;99.90;;;;;;5006146;28;20034;-67
2021/11/10 01:04:35;;;;;;;7.93;4.30;;;0.40;99.10;;;;;;5018752;28;20026;-67
2021/11/10 01:07:02;;;;;;;8.15;4.53;;;0.40;99.70;;;;;;5002739;28;20052;-67
2021/11/10 01:09:28;;;;;;;7.80;4.65;;;0.40;98.90;;;;;;5001348;28;20038;-67
2021/11/10 01:11:54;;;;;;;5.63;3.95;;;0.20;99.90;;;;;;5001250;28;20029;-67
2021/11/10 01:14:20;;;;;;;7.43;5.13;;;0.20;99.90;;;;;;5018695;28;20565;-67
2021/11/10 01:16:47;;;;;;;7.43;4.72;;;0.20;99.90;;;;;;5002222;28;20756;-67
2021/11/10 01:19:13;;;;;;;8.95;5.15;;;0.20;99.90;;;;;;4998822;28;20026;-67
2021/11/10 01:21:39;;;;;;;7.30;4.93;;;0.30;99.60;;;;;;5006845;28;20026;-67
2021/11/10 01:24:05;;;;;;;4.75;4.35;;;0.30;99.90;;;;;;4995130;28;20049;-68
2021/11/10 01:26:31;;;;;;;7.95;5.05;;;0.30;98.30;;;;;;5002240;28;20124;-67
2021/11/10 01:28:57;;;;;;;7.32;4.38;;;0.30;98.10;;;;;;5002959;28;20030;-67
2021/11/10 01:31:23;;;;;;;5.80;4.55;;;0.20;98.90;;;;;;4996671;28;20038;-67
2021/11/10 01:33:49;;;;;;;5.70;4.03;;;0.10;98.00;;;;;;5008429;28;20022;-67
2021/11/10 01:36:14;;;;;;;8.07;4.28;;;0.00;98.40;;;;;;5000260;28;20025;-67
2021/11/10 01:38:40;;;;;;;11.38;4.93;;;-0.10;98.70;;;;;;5000927;28;20034;-67
2021/11/10 01:41:06;;;;;;;6.80;4.00;;;-0.20;99.90;;;;;;5006065;28;20030;-68
2021/11/10 01:43:32;;;;;;;6.43;4.20;;;-0.20;99.90;;;;;;5002288;28;20037;-67
2021/11/10 01:45:58;;;;;;;7.07;4.13;;;0.00;99.90;;;;;;4995195;28;20742;-69
2021/11/10 01:48:24;;;;;;;5.93;4.72;;;-0.10;99.90;;;;;;5004023;28;20033;-67
2021/11/10 01:50:50;;;;;;;10.07;5.68;;;0.00;99.90;;;;;;4996608;28;20036;-67
2021/11/10 01:53:16;;;;;;;7.70;5.18;;;0.10;99.90;;;;;;5003765;28;20106;-67
2021/11/10 01:55:43;;;;;;;5.55;4.68;;;0.20;99.30;;;;;;5019185;28;20112;-67
2021/11/10 01:58:09;;;;;;;7.63;5.38;;;0.30;99.00;;;;;;5006539;28;20029;-67
2021/11/10 02:00:39;;;;;;;8.13;4.35;;;0.20;99.00;;;;;;5001599;28;20049;-67
2021/11/10 02:03:05;;;;;;;5.35;4.60;;;0.10;99.30;;;;;;4999900;28;20022;-67
2021/11/10 02:05:31;;;;;;;5.20;3.75;;;0.10;99.90;;;;;;5001043;28;20026;-67
2021/11/10 02:07:57;;;;;;;4.35;3.45;;;0.10;99.50;;;;;;5002775;28;20064;-67
2021/11/10 02:10:25;;;;;;;5.72;3.92;;;0.10;99.30;;;;;;5001922;28;20065;-67
2021/11/10 02:12:55;;;;;;;3.92;3.53;;;0.00;99.10;;;;;;5002321;28;20459;-67
2021/11/10 02:15:22;;;;;;;5.78;4.60;;;-0.10;99.60;;;;;;5014901;28;20037;-67
2021/11/10 02:17:53;;;;;;;5.43;3.42;;;0.00;99.40;;;;;;5006419;28;20025;-67
2021/11/10 02:20:19;;;;;;;7.78;4.47;;;-0.10;99.90;;;;;;5003654;28;20136;-67
2021/11/10 02:22:47;;;;;;;5.18;3.78;;;0.00;99.90;;;;;;5003929;28;20101;-67
2021/11/10 02:25:13;;;;;;;9.32;5.25;;;0.00;99.90;;;;;;4996582;28;20037;-67
2021/11/10 02:27:40;;;;;;;6.00;4.93;;;0.10;99.70;;;;;;4994206;28;20048;-68
2021/11/10 02:30:18;;;;;;;9.30;4.90;;;0.10;98.30;;;;;;5002770;28;20030;-67
2021/11/10 02:32:53;;;;;;;5.20;3.92;;;0.10;99.60;;;;;;4997155;28;20045;-67
2021/11/10 02:35:22;;;;;;;7.28;3.92;;;0.00;99.90;;;;;;5000037;28;20167;-67
2021/11/10 02:37:48;;;;;;;;;;;0.00;99.90;;;;;;5016418;28;20030;-67
2021/11/10 02:40:14;;;;;;;5.75;4.45;;;0.00;99.90;;;;;;5002863;28;19910;-67
2021/11/10 02:42:40;;;;;;;6.03;3.67;;;0.10;99.30;;;;;;5004360;28;20498;-67
2021/11/10 02:45:07;;;;;;;5.07;4.10;;;0.10;98.70;;;;;;5005280;28;20030;-67
2021/11/10 02:47:34;;;;;;;4.80;4.15;;;0.20;98.90;;;;;;4999193;28;21545;-67
2021/11/10 02:49:59;;;;;;;6.78;3.60;;;0.20;98.50;;;;;;4995724;28;20732;-67
2021/11/10 02:52:25;;;;;;;7.90;4.30;;;0.20;98.50;;;;;;4999726;28;20121;-67
2021/11/10 02:54:53;;;;;;;5.43;4.72;;;0.20;98.70;;;;;;4999186;28;20041;-67
2021/11/10 02:57:24;;;;;;;12.20;7.50;;;0.20;98.60;;;;;;5006273;28;20037;-67
2021/11/10 02:59:50;;;;;;;9.07;5.65;;;0.10;99.30;;;;;;4995929;28;20288;-66
2021/11/10 03:02:26;;;;;;;6.75;4.50;;;0.10;99.60;;;;;;4999832;28;20149;-67
2021/11/10 03:04:52;;;;;;;4.68;4.15;;;0.10;99.40;;;;;;5003170;28;20092;-67
2021/11/10 03:07:18;;;;;;;5.60;3.40;;;0.00;99.60;;;;;;4995715;28;20104;-66
2021/11/10 03:09:44;;;;;;;7.03;3.95;;;-0.20;99.90;;;;;;5002833;28;20493;-67
2021/11/10 03:12:12;;;;;;;4.63;4.10;;;-0.10;99.90;;;;;;4998913;28;20034;-67
2021/11/10 03:14:39;;;;;;;6.55;4.00;;;-0.10;99.90;;;;;;5011395;28;20028;-66
2021/11/10 03:17:08;;;;;;;4.13;3.23;;;-0.20;99.90;;;;;;4998870;28;20029;-67
2021/11/10 03:19:34;;;;;;;6.40;4.63;;;0.00;99.90;;;;;;5001303;28;20276;-68
2021/11/10 03:22:00;;;;;;;5.40;3.85;;;0.00;99.10;;;;;;5000916;28;20069;-67
2021/11/10 03:24:26;;;;;;;7.50;4.32;;;-0.10;99.80;;;;;;5005633;28;20025;-67
2021/11/10 03:26:51;;;;;;;8.02;3.75;;;-0.10;99.80;;;;;;4996757;28;20100;-67
2021/11/10 03:29:17;;;;;;;7.00;3.50;;;-0.10;99.80;;;;;;5000345;28;20038;-67
2021/11/10 03:31:43;;;;;;;5.18;3.50;;;-0.10;99.90;;;;;;4996427;28;20095;-68
2021/11/10 03:34:11;;;;;;;7.63;3.28;;;-0.10;99.60;;;;;;5000602;28;20030;-67
2021/11/10 03:36:37;;;;;;;5.65;3.83;;;-0.10;98.50;;;;;;4996922;28;20514;-68
2021/11/10 03:39:06;;;;;;;5.72;4.05;;;-0.10;98.40;;;;;;4993328;28;20030;-67
2021/11/10 03:41:32;;;;;;;4.35;3.72;;;-0.30;98.70;;;;;;5007126;28;20033;-67
2021/11/10 03:43:58;;;;;;;8.73;4.28;;;-0.30;99.90;;;;;;5007449;28;20030;-68
2021/11/10 03:46:24;;;;;;;4.18;3.55;;;-0.30;99.90;;;;;;4991528;28;20109;-67
2021/11/10 03:48:51;;;;;;;8.75;3.75;;;-0.30;99.10;;;;;;4992753;28;20060;-67
2021/11/10 03:51:17;;;;;;;6.85;3.65;;;-0.30;99.90;;;;;;4989860;28;20596;-67
2021/11/10 03:53:44;;;;;;;4.75;3.42;;;-0.30;99.90;;;;;;4994335;28;21640;-67
2021/11/10 03:56:09;;;;;;;3.78;3.08;;;-0.30;99.90;;;;;;4996680;28;20064;-67
2021/11/10 03:58:36;;;;;;;4.28;3.50;;;-0.30;99.90;;;;;;4996416;28;20034;-67
2021/11/10 04:01:03;;;;;;;7.28;3.70;;;-0.40;99.90;;;;;;4994190;28;20034;-67
2021/11/10 04:03:29;;;;;;;5.18;3.88;;;-0.30;99.90;;;;;;4998949;28;20018;-67
2021/11/10 04:05:54;;;;;;;5.18;3.78;;;-0.30;99.90;;;;;;4997461;28;20035;-67
2021/11/10 04:08:21;;;;;;;5.78;3.97;;;-0.30;99.90;;;;;;4995827;28;20041;-67
2021/11/10 04:10:47;;;;;;;3.92;3.53;;;-0.30;99.90;;;;;;4995702;28;20034;-66
2021/11/10 04:13:13;;;;;;;5.88;4.63;;;-0.30;99.90;;;;;;4995886;28;20033;-67
2021/11/10 04:15:38;;;;;;;5.65;3.97;;;-0.20;99.90;;;;;;4995281;28;20034;-67
2021/11/10 04:18:05;;;;;;;4.18;3.72;;;-0.20;99.90;;;;;;4996050;28;20033;-67
2021/11/10 04:20:31;;;;;;;10.63;4.82;;;-0.20;99.90;;;;;;4993903;28;20068;-67
2021/11/10 04:22:57;;;;;;;6.35;3.92;;;-0.20;99.90;;;;;;4995715;28;20042;-67
2021/11/10 04:25:23;;;;;;;5.13;4.63;;;-0.30;99.90;;;;;;4992723;28;20040;-67
2021/11/10 04:27:49;;;;;;;5.47;3.58;;;-0.30;99.90;;;;;;4995434;28;20057;-67
2021/11/10 04:30:15;;;;;;;5.20;4.05;;;-0.20;99.90;;;;;;5009752;28;20751;-67
2021/11/10 04:32:41;;;;;;;5.63;4.53;;;-0.20;99.90;;;;;;4996374;28;20042;-67
2021/11/10 04:35:09;;;;;;;5.22;4.13;;;-0.20;99.90;;;;;;4996430;28;20159;-67
2021/11/10 04:37:35;;;;;;;5.57;3.72;;;-0.20;99.90;;;;;;4993292;28;20123;-67
2021/11/10 04:40:01;;;;;;;4.75;3.45;;;-0.20;99.90;;;;;;5003017;28;20041;-67
2021/11/10 04:42:27;;;;;;;8.57;4.22;;;-0.20;98.80;;;;;;5007037;28;20022;-66
2021/11/10 04:45:00;;;;;;;3.67;3.28;;;-0.30;97.80;;;;;;5000933;28;20029;-67
2021/11/10 04:47:26;;;;;;;6.45;3.65;;;-0.30;97.20;;;;;;4998554;28;20462;-67
2021/11/10 04:49:51;;;;;;;6.57;3.83;;;-0.30;97.40;;;;;;4997839;28;20042;-67
2021/11/10 04:52:17;;;;;;;6.40;4.13;;;-0.40;98.90;;;;;;4998822;28;20072;-66
2021/11/10 04:54:43;;;;;;;8.20;4.57;;;-0.50;98.70;;;;;;4999358;28;20034;-66
2021/11/10 04:57:09;;;;;;;4.93;4.13;;;-0.70;99.90;;;;;;5000470;28;20029;-67
2021/11/10 04:59:35;;;;;;;5.30;3.60;;;-0.70;99.90;;;;;;5000090;28;20121;-67
2021/11/10 05:04:34;;;;;;;7.93;4.07;;;-0.70;99.90;;;;;;5002561;28;20018;-67
2021/11/10 05:07:00;;;;;;;6.50;4.72;;;-0.70;99.90;;;;;;4998561;28;20149;-67
2021/11/10 05:09:27;;;;;;;7.05;3.47;;;-0.70;99.90;;;;;;4999333;28;20120;-67
2021/11/10 05:11:53;;;;;;;4.97;4.13;;;-0.70;99.90;;;;;;5000254;28;20565;-67
2021/11/10 05:14:19;;;;;;;6.82;4.93;;;-0.70;99.90;;;;;;4999580;28;20034;-67
2021/11/10 05:16:45;;;;;;;5.25;4.05;;;-0.70;99.90;;;;;;5014923;28;20052;-66
2021/11/10 05:19:10;;;;;;;7.85;4.50;;;-0.70;99.90;;;;;;4999254;28;20030;-67
2021/11/10 05:21:37;;;;;;;9.98;4.22;;;-0.70;99.90;;;;;;4997687;28;20021;-67
2021/11/10 05:24:03;;;;;;;5.60;4.60;;;-0.60;99.90;;;;;;4999066;28;20371;-66
2021/11/10 05:26:30;;;;;;;6.57;4.45;;;-0.50;99.90;;;;;;4996526;28;20064;-67
2021/11/10 05:28:56;;;;;;;7.30;5.10;;;-0.50;99.90;;;;;;4998899;28;20390;-66
2021/11/10 05:31:22;;;;;;;6.82;4.68;;;-0.50;99.90;;;;;;4999414;28;20044;-67
2021/11/10 05:33:48;;;;;;;5.28;3.85;;;-0.60;99.90;;;;;;4997519;28;20060;-67
2021/11/10 05:36:14;;;;;;;8.20;3.90;;;-0.60;99.90;;;;;;4999040;28;20021;-67
2021/11/10 05:38:40;;;;;;;6.95;5.00;;;-0.60;99.90;;;;;;4999504;28;21759;-67
2021/11/10 05:41:05;;;;;;;4.82;4.35;;;-0.60;99.30;;;;;;4997990;28;20034;-67
2021/11/10 05:43:31;;;;;;;6.35;3.95;;;-0.70;99.50;;;;;;5013666;28;20033;-67
2021/11/10 05:45:57;;;;;;;4.78;4.05;;;-0.70;99.90;;;;;;4996880;28;20026;-66
2021/11/10 05:48:23;;;;;;;5.80;4.00;;;-0.70;99.80;;;;;;4999164;28;20088;-67
2021/11/10 05:50:49;;;;;;;4.85;3.92;;;-0.80;99.90;;;;;;5001348;28;20034;-66
2021/11/10 05:53:16;;;;;;;4.88;3.53;;;-0.80;99.90;;;;;;5004650;28;20048;-66
2021/11/10 05:55:42;;;;;;;6.65;4.70;;;-0.70;99.90;;;;;;5005357;28;20037;-67
2021/11/10 05:58:09;;;;;;;6.30;4.88;;;-0.70;99.90;;;;;;4997357;28;20038;-66
2021/11/10 06:00:35;;;;;;;4.35;3.65;;;-0.70;99.90;;;;;;4995999;28;20688;-67
2021/11/10 06:03:01;;;;;;;7.25;5.38;;;-0.60;99.90;;;;;;4989849;28;20026;-67
2021/11/10 06:05:27;;;;;;;11.90;8.20;;;-0.50;99.90;;;;;;4993007;28;20325;-68
2021/11/10 06:07:53;;;;;;;9.27;6.70;;;-0.40;99.90;;;;;;5004983;28;20083;-67
2021/11/10 06:10:19;;;;;;;10.13;6.10;;;-0.40;99.90;;;;;;4995432;28;20123;-67
2021/11/10 06:12:46;;;;;;;9.48;6.13;;;-0.30;99.90;;;;;;4991142;28;20034;-67
2021/11/10 06:15:11;;;;;;;8.40;4.63;;;-0.30;99.90;;;;;;4993448;28;20034;-67
2021/11/10 06:17:38;;;;;;;9.32;4.10;;;-0.30;99.90;;;;;;4995393;28;20105;-67
2021/11/10 06:20:07;;;;;;;6.85;4.72;;;-0.30;99.90;;;;;;4993322;28;20463;-67
2021/11/10 06:22:34;;;;;;;6.65;5.22;;;-0.30;99.90;;;;;;5016169;28;20114;-67
2021/11/10 06:25:00;;;;;;;6.47;4.95;;;-0.40;99.90;;;;;;4995143;28;20041;-68
2021/11/10 06:27:26;;;;;;;6.75;4.85;;;-0.50;99.90;;;;;;4990021;28;20411;-67
2021/11/10 06:29:52;;;;;;;9.45;5.30;;;-0.50;99.90;;;;;;4988770;28;20032;-67
2021/11/10 06:32:18;;;;;;;9.45;4.97;;;-0.50;99.90;;;;;;4998892;28;20495;-67
2021/11/10 06:34:44;;;;;;;8.00;5.30;;;-0.50;99.90;;;;;;5002094;28;20049;-67
2021/11/10 06:37:10;;;;;;;7.13;5.15;;;-0.40;99.90;;;;;;5002648;28;20026;-67
2021/11/10 06:39:35;;;;;;;4.97;3.88;;;-0.40;99.90;;;;;;4998817;28;20298;-67
2021/11/10 06:42:01;;;;;;;6.78;4.97;;;-0.50;99.90;;;;;;4999849;28;20109;-68
2021/11/10 06:44:27;;;;;;;16.33;5.97;;;-0.40;99.90;;;;;;5015812;28;20549;-68
2021/11/10 06:46:53;;;;;;;8.05;5.43;;;-0.40;99.90;;;;;;5002314;28;21810;-68
2021/11/10 06:49:18;;;;;;;11.15;5.47;;;-0.40;99.90;;;;;;5002067;28;20038;-68
2021/11/10 06:51:45;;;;;;;12.30;5.95;;;-0.30;99.90;;;;;;5005307;28;20406;-68
2021/11/10 06:54:13;;;;;;;7.03;4.90;;;-0.30;99.90;;;;;;5003337;28;20045;-68
2021/11/10 06:56:38;;;;;;;12.35;7.05;;;-0.30;99.90;;;;;;5001887;28;20084;-68
2021/11/10 06:59:04;;;;;;;8.98;6.22;;;-0.40;99.90;;;;;;5002200;28;20494;-67
2021/11/10 07:01:30;;;;;;;11.95;5.43;;;-0.40;99.90;;;;;;5015134;28;20033;-67
2021/11/10 07:03:55;;;;;;;10.25;5.25;;;-0.40;99.90;;;;;;5003941;28;20018;-68
2021/11/10 07:06:21;;;;;;;13.95;7.05;;;-0.30;99.90;;;;;;5007641;28;20026;-68
2021/11/10 07:08:46;;;;;;;6.47;4.85;;;-0.30;99.90;;;;;;5004138;28;21456;-67
2021/11/10 07:11:12;;;;;;;7.00;5.22;;;-0.30;99.90;;;;;;4996187;28;20034;-67
2021/11/10 07:13:38;;;;;;;8.02;5.25;;;-0.30;99.90;;;;;;4990796;28;20045;-68
2021/11/10 07:16:04;;;;;;;6.28;5.45;;;-0.20;99.90;;;;;;4994466;28;20038;-68
2021/11/10 07:18:30;;;;;;;8.65;5.00;;;-0.20;99.90;;;;;;4990901;28;20041;-68
2021/11/10 07:20:56;;;;;;;8.82;6.13;;;-0.20;99.90;;;;;;5003384;28;20052;-68
2021/11/10 07:23:21;;;;;;;6.55;5.25;;;-0.10;99.90;;;;;;4998989;28;20607;-68
2021/11/10 07:25:47;;;;;;;6.70;5.68;;;-0.10;99.90;;;;;;4997699;28;20045;-68
2021/11/10 07:28:14;;;;;;;11.80;6.38;;;-0.10;99.90;;;;;;4994625;28;20448;-68
2021/11/10 07:30:40;;;;;;;10.18;4.85;;;-0.10;99.90;;;;;;4988581;28;20062;-68
2021/11/10 07:33:08;;;;;;;12.57;5.57;;;0.00;99.90;;;;;;4990007;28;20041;-68
2021/11/10 07:35:34;;;;;;;6.00;5.00;;;0.00;99.90;;;;;;5004761;28;20034;-69
2021/11/10 07:38:00;;;;;;;10.68;6.00;;;0.10;99.90;;;;;;4994940;28;20038;-68
2021/11/10 07:40:26;;;;;;;10.30;5.65;;;0.10;99.90;;;;;;4992441;28;20454;-68
2021/11/10 07:42:53;;;;;;;11.98;6.25;;;0.10;99.90;;;;;;4990333;28;20045;-68
2021/11/10 07:45:30;;;;;;;8.15;5.97;;;0.20;99.90;;;;;;4988893;28;20100;-68
2021/11/10 07:47:59;;;;;;;8.93;5.72;;;0.10;99.90;;;;;;4991794;28;20029;-69
2021/11/10 07:50:25;;;;;;;10.07;5.65;;;0.20;99.90;;;;;;4988999;28;20030;-68
2021/11/10 07:52:51;;;;;;;8.38;5.07;;;0.20;99.90;;;;;;4987514;28;20068;-68
2021/11/10 07:55:17;;;;;;;11.57;7.00;;;0.20;99.90;;;;;;4991228;28;20076;-68
2021/11/10 07:57:43;;;;;;;9.13;5.90;;;0.30;99.90;;;;;;4988991;28;20651;-68
2021/11/10 08:00:17;;;;;;;9.13;6.13;;;0.30;99.90;;;;;;4992118;28;20033;-68
2021/11/10 08:02:43;;;;;;;11.35;6.82;;;0.30;99.90;;;;;;4985796;28;20133;-68
2021/11/10 08:05:11;;;;;;;8.30;6.40;;;0.30;99.90;;;;;;5002405;28;20053;-68
2021/11/10 08:07:37;;;;;;;8.23;6.27;;;0.30;99.90;;;;;;4995622;28;20034;-68
2021/11/10 08:10:04;;;;;;;15.32;7.30;;;0.40;99.90;;;;;;5014564;28;20823;-69
2021/11/10 08:12:31;;;;;;;12.20;7.22;;;0.40;99.90;;;;;;5007101;28;20026;-68
2021/11/10 08:14:58;;;;;;;13.30;6.75;;;0.40;99.90;;;;;;4997406;28;20038;-68
2021/11/10 08:17:24;;;;;;;10.02;5.80;;;0.50;99.90;;;;;;4995250;28;20033;-68
2021/11/10 08:19:51;;;;;;;11.38;7.25;;;0.50;99.90;;;;;;5008265;28;20149;-69
2021/11/10 08:22:16;;;;;;;12.43;7.45;;;0.50;99.90;;;;;;4992797;28;20029;-69
2021/11/10 08:24:43;;;;;;;10.98;6.07;;;0.60;99.90;;;;;;4998698;28;20561;-68
2021/11/10 08:27:09;;;;;;;9.80;6.97;;;0.60;99.90;;;;;;5005106;28;20048;-69
2021/11/10 08:29:34;;;;;;;12.10;7.85;;;0.70;99.90;;;;;;4996768;28;20395;-68
2021/11/10 08:32:00;;;;;;;9.10;6.90;;;0.70;99.90;;;;;;4993167;28;20037;-68
2021/11/10 08:34:26;;;;;;;8.25;7.03;;;0.80;99.90;;;;;;5002002;28;20363;-68
2021/11/10 08:36:52;;;;;;;12.65;6.78;;;0.80;99.90;;;;;;4998018;28;20084;-69
2021/11/10 08:39:18;;;;;;;11.50;6.75;;;0.80;99.90;;;;;;5000782;28;20053;-68
2021/11/10 08:41:47;;;;;;;12.50;6.78;;;0.90;99.90;;;;;;5004839;28;20028;-69
2021/11/10 08:44:14;;;;;;;10.45;7.32;;;0.90;99.90;;;;;;5000301;28;20622;-68
2021/11/10 08:46:41;;;;;;;11.02;7.55;;;0.90;99.90;;;;;;4997355;28;20659;-66
2021/11/10 08:49:07;;;;;;;13.75;7.35;;;1.00;99.90;;;;;;4994751;28;20453;-68
2021/11/10 08:51:33;;;;;;;11.30;6.82;;;1.00;99.90;;;;;;4994881;28;20034;-69
2021/11/10 08:53:58;;;;;;;13.60;7.88;;;1.10;99.90;;;;;;4997279;28;20026;-68
2021/11/10 08:56:24;;;;;;;13.43;8.23;;;1.10;99.90;;;;;;4996736;28;20030;-68
2021/11/10 08:58:50;;;;;;;14.05;8.35;;;1.20;99.90;;;;;;4999309;28;20053;-68
2021/11/10 09:01:17;;;;;;;12.68;7.63;;;1.20;99.90;;;;;;5004004;28;20092;-68
2021/11/10 09:03:43;;;;;;;10.32;7.03;;;1.30;99.90;;;;;;5001495;28;20017;-68
2021/11/10 09:06:09;;;;;;;17.35;8.25;;;1.30;99.90;;;;;;5006819;28;20021;-68
2021/11/10 09:08:35;;;;;;;10.30;6.80;;;1.40;99.90;;;;;;4999359;28;20592;-68
2021/11/10 09:11:01;;;;;;;13.02;7.70;;;1.50;99.90;;;;;;4994660;28;20032;-66
2021/11/10 09:13:27;;;;;;;11.85;7.40;;;1.50;99.90;;;;;;4997572;28;20418;-67
2021/11/10 09:15:53;;;;;;;11.57;7.68;;;1.60;99.90;;;;;;4997215;28;20125;-68
2021/11/10 09:18:19;;;;;;;13.80;9.18;;;1.60;99.90;;;;;;5006914;28;20394;-67
2021/11/10 09:20:45;;;;;;;13.38;8.68;;;1.70;99.90;;;;;;4996973;28;20036;-68
2021/11/10 09:23:14;;;;;;;15.20;8.02;;;1.70;99.90;;;;;;4997513;28;20026;-68
2021/11/10 09:25:40;;;;;;;13.95;8.63;;;1.80;99.90;;;;;;4998260;28;20117;-67
2021/11/10 09:28:08;;;;;;;18.88;9.13;;;1.80;99.90;;;;;;4993797;28;20038;-67
2021/11/10 09:30:38;;;;;;;15.10;9.02;;;1.80;99.90;;;;;;5017731;28;20030;-67
2021/11/10 09:33:04;;;;;;;15.23;8.23;;;1.80;99.90;;;;;;4995541;28;20045;-67
2021/11/10 09:35:30;;;;;;;13.63;7.72;;;1.90;99.90;;;;;;4993629;28;21109;-67
2021/11/10 09:37:58;;;;;;;13.85;7.78;;;1.90;99.90;;;;;;5013836;28;20034;-67
2021/11/10 09:40:27;;;;;;;16.08;10.02;;;2.00;99.90;;;;;;5000228;28;20056;-67
2021/11/10 09:42:53;;;;;;;16.02;9.65;;;2.00;99.90;;;;;;4995079;28;20608;-67
2021/11/10 09:45:21;;;;;;;16.98;9.85;;;2.10;99.90;;;;;;5000919;28;20037;-67
2021/11/10 09:47:47;;;;;;;18.83;10.33;;;2.20;99.90;;;;;;4998538;28;20156;-67
2021/11/10 09:50:17;;;;;;;16.38;9.63;;;2.30;99.90;;;;;;4999266;28;20026;-67
2021/11/10 09:52:43;;;;;;;18.40;10.43;;;2.30;99.90;;;;;;4991395;28;20054;-68
2021/11/10 09:55:10;;;;;;;18.00;10.82;;;2.40;99.90;;;;;;4996869;28;20590;-67
2021/11/10 09:57:36;;;;;;;14.18;9.00;;;2.50;99.90;;;;;;4997148;28;20749;-67
2021/11/10 10:00:08;;;;;;;19.17;8.95;;;2.60;99.90;;;;;;4995065;28;20030;-67
2021/11/10 10:02:34;;;;;;;19.38;9.98;;;2.60;99.90;;;;;;5013711;28;20374;-67
2021/11/10 10:05:00;;;;;;;20.30;10.35;;;2.70;99.90;;;;;;4992293;28;20080;-67
2021/11/10 10:07:27;;;;;;;16.27;11.25;;;2.80;99.90;;;;;;5005256;28;20022;-68
2021/11/10 10:09:53;;;;;;;15.80;10.60;;;3.00;99.90;;;;;;4997880;28;20030;-68
2021/11/10 10:12:19;;;;;;;19.50;10.80;;;3.00;99.90;;;;;;4993712;28;20062;-67
2021/11/10 10:14:47;;;;;;;18.65;10.70;;;3.10;99.90;;;;;;4998680;28;20061;-68
2021/11/10 10:17:40;;;;;;;19.20;10.93;;;3.10;99.90;;;;;;4993360;28;20417;-67
2021/11/10 10:20:22;;;;;;;19.63;10.60;;;3.20;99.90;;;;;;4997613;28;20430;-67
2021/11/10 10:22:49;;;;;;;19.67;10.30;;;3.30;99.90;;;;;;5012215;28;20497;-67
2021/11/10 10:25:16;;;;;;;16.60;10.40;;;3.30;99.90;;;;;;4999506;28;20104;-67
2021/11/10 10:27:53;;;;;;;19.80;11.40;;;3.40;99.90;;;;;;5003527;28;20121;-67
2021/11/10 10:30:32;;;;;;;20.30;10.25;;;3.40;99.90;;;;;;4990129;28;20040;-68
2021/11/10 10:33:05;;;;;;;20.15;11.15;;;3.50;99.90;;;;;;4994928;28;20388;-68
2021/11/10 10:35:36;;;;;;;20.30;11.35;;;3.70;99.90;;;;;;5000702;28;20030;-68
2021/11/10 10:38:03;;;;;;;17.35;9.13;;;3.80;99.90;;;;;;4991810;28;20034;-68
2021/11/10 10:40:30;;;;;;;12.93;8.57;;;3.80;99.90;;;;;;5015318;28;20029;-68
2021/11/10 10:42:56;;;;;;;16.20;9.68;;;3.90;99.90;;;;;;4995648;28;20030;-68
2021/11/10 10:45:40;;;;;;;16.42;9.57;;;4.00;99.90;;;;;;5011387;28;20044;-68
2021/11/10 10:48:14;;;;;;;15.85;9.30;;;4.10;99.90;;;;;;5009978;28;20030;-68
2021/11/10 10:50:50;;;;;;;15.32;9.45;;;4.20;99.90;;;;;;5005699;28;20022;-68
2021/11/10 10:53:30;;;;;;;16.85;10.02;;;4.20;99.90;;;;;;5002305;28;20085;-68
2021/11/10 10:55:55;;;;;;;15.60;8.45;;;4.30;99.90;;;;;;4998115;28;20092;-68
2021/11/10 10:58:34;;;;;;;15.77;9.82;;;4.40;99.90;;;;;;5015109;28;20042;-68
2021/11/10 11:01:15;;;;;;;16.35;10.63;;;4.40;99.90;;;;;;5006041;28;20030;-68
2021/11/10 11:03:48;;;;;;;19.73;10.25;;;4.50;99.90;;;;;;5005998;28;20018;-68
2021/11/10 11:06:23;;;;;;;17.80;10.90;;;4.50;99.90;;;;;;5004050;28;20125;-67
2021/11/10 11:08:49;;;;;;;15.80;9.60;;;4.60;99.90;;;;;;5001418;28;20104;-67
2021/11/10 11:11:37;;;;;;;18.25;10.40;;;4.60;99.90;;;;;;5003198;28;20036;-68
2021/11/10 11:14:04;;;;;;;15.60;11.20;;;4.60;99.90;;;;;;5002239;28;20033;-68
2021/11/10 11:16:41;;;;;;;23.67;12.07;;;4.60;99.90;;;;;;5003001;28;20375;-68
2021/11/10 11:19:15;;;;;;;22.77;11.10;;;4.60;99.90;;;;;;5001679;28;20037;-68
2021/11/10 11:21:53;;;;;;;19.20;10.90;;;4.70;99.90;;;;;;5003513;28;20025;-68
2021/11/10 11:24:37;;;;;;;19.70;12.13;;;4.80;99.90;;;;;;5003374;28;20037;-68
2021/11/10 11:27:32;;;;;;;18.40;11.52;;;4.80;99.90;;;;;;5004184;28;20033;-68
2021/11/10 11:30:24;;;;;;;17.67;10.70;;;4.80;99.90;;;;;;4996656;28;20454;-68
2021/11/10 11:32:55;;;;;;;17.85;11.75;;;4.80;99.90;;;;;;5001336;28;20030;-68
2021/11/10 11:35:27;;;;;;;21.13;11.10;;;4.80;99.90;;;;;;5003869;28;20072;-68
2021/11/10 11:38:02;;;;;;;19.30;10.77;;;4.80;99.90;;;;;;5005884;28;20022;-68
2021/11/10 11:40:29;;;;;;;17.63;10.10;;;4.90;99.90;;;;;;5001540;28;20522;-68
2021/11/10 11:42:57;;;;;;;19.65;10.88;;;4.90;99.90;;;;;;5002788;28;20032;-68
2021/11/10 11:45:27;;;;;;;38.40;29.48;;;4.90;99.90;;;;;;4995621;28;20037;-68
2021/11/10 11:47:54;;;;;;;18.35;11.50;;;4.90;99.90;;;;;;4999762;28;20026;-69
2021/11/10 11:50:21;;;;;;;17.67;10.60;;;4.90;99.90;;;;;;5010753;28;20038;-66
2021/11/10 11:52:50;;;;;;;17.48;11.52;;;4.90;99.90;;;;;;5026204;28;20057;-68
2021/11/10 11:55:40;;;;;;;20.05;11.30;;;5.00;99.90;;;;;;5004842;28;20598;-67
2021/11/10 11:58:19;;;;;;;20.63;10.88;;;5.10;99.90;;;;;;5008427;28;20093;-67
2021/11/10 12:00:50;;;;;;;15.55;10.23;;;5.10;99.90;;;;;;5025360;28;20125;-67
2021/11/10 12:03:23;;;;;;;17.05;10.85;;;5.10;99.90;;;;;;5009245;28;20025;-67
2021/11/10 12:06:15;;;;;;;23.10;10.90;;;5.10;99.90;;;;;;5007138;28;20140;-68
2021/11/10 12:08:46;;;;;;;19.70;11.57;;;5.20;99.90;;;;;;5002177;28;20061;-67
2021/11/10 12:11:38;;;;;;;22.90;11.77;;;5.20;99.90;;;;;;5004251;28;20060;-68
2021/11/10 12:14:07;;;;;;;21.02;11.70;;;5.20;99.90;;;;;;5007448;28;20474;-67
2021/11/10 12:16:47;;;;;;;19.98;11.02;;;5.30;99.90;;;;;;5023759;28;20060;-68
2021/11/10 12:19:33;;;;;;;20.58;12.00;;;5.30;99.90;;;;;;4999649;28;20107;-68
2021/11/10 12:22:19;;;;;;;19.58;11.98;;;5.30;99.90;;;;;;5000903;28;20026;-68
2021/11/10 12:25:01;;;;;;;19.55;11.52;;;5.30;99.90;;;;;;5011538;28;20034;-68
2021/11/10 12:27:43;;;;;;;19.13;11.45;;;5.30;99.90;;;;;;5001900;28;20018;-68
2021/11/10 12:30:18;;;;;;;25.02;13.55;;;5.40;99.90;;;;;;5001324;28;20065;-68
2021/11/10 12:32:48;;;;;;;19.10;12.13;;;5.40;99.90;;;;;;5005118;28;20069;-68
2021/11/10 12:35:42;;;;;;;23.95;12.80;;;5.50;99.90;;;;;;5020738;28;20061;-68
2021/11/10 12:38:23;;;;;;;21.27;11.90;;;5.50;99.90;;;;;;5001730;28;20057;-67
2021/11/10 12:41:06;;;;;;;19.00;11.68;;;5.50;99.90;;;;;;5005213;28;20108;-67
2021/11/10 12:43:43;;;;;;;20.33;12.00;;;5.60;99.90;;;;;;5007362;28;20022;-67
2021/11/10 12:46:22;;;;;;;20.55;11.77;;;5.60;99.90;;;;;;5002751;28;20038;-67
2021/11/10 12:48:49;;;;;;;22.50;11.45;;;5.60;99.90;;;;;;5007134;28;20040;-67
2021/11/10 12:51:30;;;;;;;23.40;12.38;;;5.60;99.90;;;;;;5010321;28;20026;-67
2021/11/10 12:54:06;;;;;;;20.67;11.93;;;5.60;99.90;;;;;;4993988;28;21777;-67
2021/11/10 12:56:53;;;;;;;17.98;10.95;;;5.50;99.90;;;;;;5020789;28;20030;-67